KMDW

Chicago Midway International Airport

Chicago, Illinois, USA
METAR KMDW 191553Z 04016KT 1SM R31C/3500VP6000FT -SN BR FEW007 BKN012 OVC021 M03/M05 A3004 RMK AO2 PK WND 05029/1454 SLP184 DRSN P0000 T10331050
Observed Flight Rules
Jan-19 @ 15:53 UTC (48 minutes ago) Instrument Flight Rules
Wind Visibility Clouds Conditions
40° at 16 knots 1 miles
  • Few at 700' AGL
  • Broken at 1,200' AGL
  • Overcast at 2,100' AGL
  • Light Snow
  • Mist
Temperatures Readings Precipitation
Current -3°C / 27°F
Dewpoint -5°C / 23°F
Humidity 86%
Altimeter 30.04" Hg
Pressure 1018.4 hPa
Elevation 188
Current Rain 0.01
METAR KMDW 191553Z 04016KT 1SM R31C/3500VP6000FT -SN BR FEW007 BKN012 OVC021 M03/M05 A3004 RMK AO2 PK WND 05029/1454 SLP184 DRSN P0000 T10331050
Observed Flight Rules
Jan-19 @ 15:53 UTC
(48 minutes ago)
IFR
Wind Visibility
40° at 16 knots 1 miles
Clouds
  • Few at 700' AGL
  • Broken at 1,200' AGL
  • Overcast at 2,100' AGL
Conditions
  • Light Snow
  • Mist
Temperature Dewpoint
-3°C / 27°F -5°C / 23°F
Humidity Altimeter Pressure
86% 30.04" Hg 1018.4 hPa
Current Rain
0.01